sensor_id;sensor_type;location;lat;lon;timestamp;P1;durP1;ratioP1;P2;durP2;ratioP2
25437;SDS011;13364;49.084;9.978;2023-01-19T00:00:55;24.80;;;11.90;;
25437;SDS011;13364;49.084;9.978;2023-01-19T00:03:22;20.00;;;11.02;;
25437;SDS011;13364;49.084;9.978;2023-01-19T00:05:49;19.20;;;10.60;;
25437;SDS011;13364;49.084;9.978;2023-01-19T00:08:17;22.75;;;10.70;;
25437;SDS011;13364;49.084;9.978;2023-01-19T00:10:45;23.95;;;11.82;;
25437;SDS011;13364;49.084;9.978;2023-01-19T00:13:14;23.77;;;11.05;;
25437;SDS011;13364;49.084;9.978;2023-01-19T00:15:41;19.95;;;11.10;;
25437;SDS011;13364;49.084;9.978;2023-01-19T00:18:08;18.95;;;10.93;;
25437;SDS011;13364;49.084;9.978;2023-01-19T00:20:36;26.25;;;11.63;;
25437;SDS011;13364;49.084;9.978;2023-01-19T00:23:07;22.05;;;11.35;;
25437;SDS011;13364;49.084;9.978;2023-01-19T00:25:35;22.30;;;10.57;;
25437;SDS011;13364;49.084;9.978;2023-01-19T00:28:08;23.45;;;10.70;;
25437;SDS011;13364;49.084;9.978;2023-01-19T00:30:37;9.68;;;6.28;;
25437;SDS011;13364;49.084;9.978;2023-01-19T00:33:04;18.60;;;9.82;;
25437;SDS011;13364;49.084;9.978;2023-01-19T00:35:32;22.40;;;9.55;;
25437;SDS011;13364;49.084;9.978;2023-01-19T00:38:00;14.48;;;7.55;;
25437;SDS011;13364;49.084;9.978;2023-01-19T00:40:28;10.27;;;6.18;;
25437;SDS011;13364;49.084;9.978;2023-01-19T00:42:55;24.65;;;10.68;;
25437;SDS011;13364;49.084;9.978;2023-01-19T00:45:23;17.38;;;9.98;;
25437;SDS011;13364;49.084;9.978;2023-01-19T00:47:50;21.35;;;10.93;;
25437;SDS011;13364;49.084;9.978;2023-01-19T00:50:23;17.80;;;9.95;;
25437;SDS011;13364;49.084;9.978;2023-01-19T00:52:52;18.92;;;10.32;;
25437;SDS011;13364;49.084;9.978;2023-01-19T00:55:20;14.90;;;7.47;;
25437;SDS011;13364;49.084;9.978;2023-01-19T00:57:48;18.92;;;10.48;;
25437;SDS011;13364;49.084;9.978;2023-01-19T01:00:16;16.88;;;9.68;;
25437;SDS011;13364;49.084;9.978;2023-01-19T01:02:48;25.10;;;10.93;;
25437;SDS011;13364;49.084;9.978;2023-01-19T01:05:17;15.75;;;9.75;;
25437;SDS011;13364;49.084;9.978;2023-01-19T01:07:45;20.30;;;9.55;;
25437;SDS011;13364;49.084;9.978;2023-01-19T01:10:17;17.85;;;7.43;;
25437;SDS011;13364;49.084;9.978;2023-01-19T01:12:53;17.45;;;9.32;;
25437;SDS011;13364;49.084;9.978;2023-01-19T01:15:25;16.40;;;9.30;;
25437;SDS011;13364;49.084;9.978;2023-01-19T01:17:53;19.92;;;10.73;;
25437;SDS011;13364;49.084;9.978;2023-01-19T01:20:22;18.90;;;10.05;;
25437;SDS011;13364;49.084;9.978;2023-01-19T01:22:52;21.65;;;10.90;;
25437;SDS011;13364;49.084;9.978;2023-01-19T01:25:21;17.40;;;9.98;;
25437;SDS011;13364;49.084;9.978;2023-01-19T01:27:49;21.15;;;10.05;;
25437;SDS011;13364;49.084;9.978;2023-01-19T01:30:16;20.90;;;10.50;;
25437;SDS011;13364;49.084;9.978;2023-01-19T01:32:43;20.35;;;10.57;;
25437;SDS011;13364;49.084;9.978;2023-01-19T01:35:11;20.15;;;10.20;;
25437;SDS011;13364;49.084;9.978;2023-01-19T01:37:39;19.42;;;10.10;;
25437;SDS011;13364;49.084;9.978;2023-01-19T01:40:09;19.52;;;9.45;;
25437;SDS011;13364;49.084;9.978;2023-01-19T01:42:38;22.08;;;11.48;;
25437;SDS011;13364;49.084;9.978;2023-01-19T01:45:08;17.42;;;10.32;;
25437;SDS011;13364;49.084;9.978;2023-01-19T01:48:00;22.58;;;11.32;;
25437;SDS011;13364;49.084;9.978;2023-01-19T01:50:31;18.88;;;10.07;;
25437;SDS011;13364;49.084;9.978;2023-01-19T01:53:10;21.20;;;11.13;;
25437;SDS011;13364;49.084;9.978;2023-01-19T01:55:42;20.38;;;10.80;;
25437;SDS011;13364;49.084;9.978;2023-01-19T01:58:14;22.15;;;10.68;;
25437;SDS011;13364;49.084;9.978;2023-01-19T02:00:42;21.48;;;11.20;;
25437;SDS011;13364;49.084;9.978;2023-01-19T02:03:28;22.58;;;11.50;;
25437;SDS011;13364;49.084;9.978;2023-01-19T02:05:56;20.38;;;10.25;;
25437;SDS011;13364;49.084;9.978;2023-01-19T02:08:29;21.63;;;10.50;;
25437;SDS011;13364;49.084;9.978;2023-01-19T02:11:17;23.92;;;10.32;;
25437;SDS011;13364;49.084;9.978;2023-01-19T02:14:03;21.27;;;10.35;;
25437;SDS011;13364;49.084;9.978;2023-01-19T02:16:31;17.67;;;10.13;;
25437;SDS011;13364;49.084;9.978;2023-01-19T02:18:59;19.70;;;10.13;;
25437;SDS011;13364;49.084;9.978;2023-01-19T02:24:08;23.50;;;11.15;;
25437;SDS011;13364;49.084;9.978;2023-01-19T02:26:40;20.80;;;10.73;;
25437;SDS011;13364;49.084;9.978;2023-01-19T02:29:11;15.98;;;9.18;;
25437;SDS011;13364;49.084;9.978;2023-01-19T02:31:41;17.80;;;10.57;;
25437;SDS011;13364;49.084;9.978;2023-01-19T02:34:09;17.13;;;10.48;;
25437;SDS011;13364;49.084;9.978;2023-01-19T02:39:19;18.00;;;10.10;;
25437;SDS011;13364;49.084;9.978;2023-01-19T02:41:53;17.33;;;9.18;;
25437;SDS011;13364;49.084;9.978;2023-01-19T02:44:22;17.98;;;8.13;;
25437;SDS011;13364;49.084;9.978;2023-01-19T02:46:54;16.55;;;9.05;;
25437;SDS011;13364;49.084;9.978;2023-01-19T02:49:22;16.55;;;9.35;;
25437;SDS011;13364;49.084;9.978;2023-01-19T02:51:52;15.98;;;9.00;;
25437;SDS011;13364;49.084;9.978;2023-01-19T02:56:49;15.82;;;9.52;;
25437;SDS011;13364;49.084;9.978;2023-01-19T02:59:47;19.35;;;10.23;;
25437;SDS011;13364;49.084;9.978;2023-01-19T03:02:40;20.58;;;9.60;;
25437;SDS011;13364;49.084;9.978;2023-01-19T03:08:20;21.00;;;9.70;;
25437;SDS011;13364;49.084;9.978;2023-01-19T03:11:04;14.88;;;9.20;;
25437;SDS011;13364;49.084;9.978;2023-01-19T03:16:23;19.35;;;9.63;;
25437;SDS011;13364;49.084;9.978;2023-01-19T03:19:05;16.42;;;8.77;;
25437;SDS011;13364;49.084;9.978;2023-01-19T03:21:41;17.88;;;9.10;;
25437;SDS011;13364;49.084;9.978;2023-01-19T03:24:12;23.92;;;10.13;;
25437;SDS011;13364;49.084;9.978;2023-01-19T03:26:45;18.92;;;9.30;;
25437;SDS011;13364;49.084;9.978;2023-01-19T03:29:15;17.75;;;9.88;;
25437;SDS011;13364;49.084;9.978;2023-01-19T03:31:45;17.20;;;10.57;;
25437;SDS011;13364;49.084;9.978;2023-01-19T03:34:15;19.65;;;10.50;;
25437;SDS011;13364;49.084;9.978;2023-01-19T03:36:45;18.55;;;10.70;;
25437;SDS011;13364;49.084;9.978;2023-01-19T03:39:22;20.98;;;10.35;;
25437;SDS011;13364;49.084;9.978;2023-01-19T03:41:53;10.93;;;5.07;;
25437;SDS011;13364;49.084;9.978;2023-01-19T03:44:26;10.10;;;3.92;;
25437;SDS011;13364;49.084;9.978;2023-01-19T03:46:55;15.30;;;7.45;;
25437;SDS011;13364;49.084;9.978;2023-01-19T03:51:54;20.42;;;10.38;;
25437;SDS011;13364;49.084;9.978;2023-01-19T03:54:22;13.27;;;7.80;;
25437;SDS011;13364;49.084;9.978;2023-01-19T03:56:49;9.98;;;5.63;;
25437;SDS011;13364;49.084;9.978;2023-01-19T03:59:17;14.32;;;5.95;;
25437;SDS011;13364;49.084;9.978;2023-01-19T04:01:45;15.32;;;8.25;;
25437;SDS011;13364;49.084;9.978;2023-01-19T04:04:13;9.88;;;4.68;;
25437;SDS011;13364;49.084;9.978;2023-01-19T04:06:41;8.20;;;4.50;;
25437;SDS011;13364;49.084;9.978;2023-01-19T04:09:08;18.02;;;8.40;;
25437;SDS011;13364;49.084;9.978;2023-01-19T04:11:35;12.43;;;7.07;;
25437;SDS011;13364;49.084;9.978;2023-01-19T04:14:03;15.73;;;8.10;;
25437;SDS011;13364;49.084;9.978;2023-01-19T04:16:30;12.70;;;7.78;;
25437;SDS011;13364;49.084;9.978;2023-01-19T04:18:56;14.27;;;8.40;;
25437;SDS011;13364;49.084;9.978;2023-01-19T04:21:24;15.23;;;9.73;;
25437;SDS011;13364;49.084;9.978;2023-01-19T04:23:51;17.80;;;10.77;;
25437;SDS011;13364;49.084;9.978;2023-01-19T04:26:18;12.55;;;6.05;;
25437;SDS011;13364;49.084;9.978;2023-01-19T04:28:45;11.60;;;6.90;;
25437;SDS011;13364;49.084;9.978;2023-01-19T04:31:12;9.65;;;4.88;;
25437;SDS011;13364;49.084;9.978;2023-01-19T04:33:40;10.00;;;5.60;;
25437;SDS011;13364;49.084;9.978;2023-01-19T04:36:07;17.98;;;10.23;;
25437;SDS011;13364;49.084;9.978;2023-01-19T04:38:34;17.30;;;9.85;;
25437;SDS011;13364;49.084;9.978;2023-01-19T04:41:01;13.68;;;5.50;;
25437;SDS011;13364;49.084;9.978;2023-01-19T04:43:28;20.35;;;9.65;;
25437;SDS011;13364;49.084;9.978;2023-01-19T04:45:55;10.57;;;5.18;;
25437;SDS011;13364;49.084;9.978;2023-01-19T04:48:22;7.80;;;4.70;;
25437;SDS011;13364;49.084;9.978;2023-01-19T04:50:49;21.25;;;10.75;;
25437;SDS011;13364;49.084;9.978;2023-01-19T04:53:17;18.25;;;10.75;;
25437;SDS011;13364;49.084;9.978;2023-01-19T04:55:44;8.88;;;5.07;;
25437;SDS011;13364;49.084;9.978;2023-01-19T04:58:12;10.43;;;4.35;;
25437;SDS011;13364;49.084;9.978;2023-01-19T05:00:39;17.60;;;9.02;;
25437;SDS011;13364;49.084;9.978;2023-01-19T05:03:06;7.75;;;4.82;;
25437;SDS011;13364;49.084;9.978;2023-01-19T05:05:33;12.80;;;6.18;;
25437;SDS011;13364;49.084;9.978;2023-01-19T05:08:01;14.55;;;8.57;;
25437;SDS011;13364;49.084;9.978;2023-01-19T05:10:28;12.05;;;4.38;;
25437;SDS011;13364;49.084;9.978;2023-01-19T05:12:55;14.82;;;7.93;;
25437;SDS011;13364;49.084;9.978;2023-01-19T05:15:22;18.08;;;9.05;;
25437;SDS011;13364;49.084;9.978;2023-01-19T05:21:42;10.20;;;4.53;;
25437;SDS011;13364;49.084;9.978;2023-01-19T05:24:09;18.92;;;8.60;;
25437;SDS011;13364;49.084;9.978;2023-01-19T05:26:36;19.73;;;8.82;;
25437;SDS011;13364;49.084;9.978;2023-01-19T05:29:03;18.05;;;9.40;;
25437;SDS011;13364;49.084;9.978;2023-01-19T05:31:30;22.00;;;10.82;;
25437;SDS011;13364;49.084;9.978;2023-01-19T05:33:58;18.40;;;9.20;;
25437;SDS011;13364;49.084;9.978;2023-01-19T05:36:25;19.10;;;8.02;;
25437;SDS011;13364;49.084;9.978;2023-01-19T05:41:42;6.65;;;4.80;;
25437;SDS011;13364;49.084;9.978;2023-01-19T05:44:11;17.73;;;6.15;;
25437;SDS011;13364;49.084;9.978;2023-01-19T05:46:39;7.53;;;4.68;;
25437;SDS011;13364;49.084;9.978;2023-01-19T05:49:06;9.45;;;4.72;;
25437;SDS011;13364;49.084;9.978;2023-01-19T05:51:33;11.98;;;6.75;;
25437;SDS011;13364;49.084;9.978;2023-01-19T05:54:03;7.15;;;4.22;;
25437;SDS011;13364;49.084;9.978;2023-01-19T05:56:31;10.45;;;5.57;;
25437;SDS011;13364;49.084;9.978;2023-01-19T05:58:59;13.25;;;5.85;;
25437;SDS011;13364;49.084;9.978;2023-01-19T06:05:52;9.32;;;5.45;;
25437;SDS011;13364;49.084;9.978;2023-01-19T06:08:22;15.63;;;9.45;;
25437;SDS011;13364;49.084;9.978;2023-01-19T06:10:49;15.15;;;7.65;;
25437;SDS011;13364;49.084;9.978;2023-01-19T06:13:16;21.63;;;11.32;;
25437;SDS011;13364;49.084;9.978;2023-01-19T06:15:43;13.75;;;7.47;;
25437;SDS011;13364;49.084;9.978;2023-01-19T06:18:11;17.95;;;9.52;;
25437;SDS011;13364;49.084;9.978;2023-01-19T06:23:07;20.35;;;10.88;;
25437;SDS011;13364;49.084;9.978;2023-01-19T06:25:35;21.35;;;12.73;;
25437;SDS011;13364;49.084;9.978;2023-01-19T06:28:02;19.88;;;13.15;;
25437;SDS011;13364;49.084;9.978;2023-01-19T06:30:29;16.48;;;9.85;;
25437;SDS011;13364;49.084;9.978;2023-01-19T06:32:57;6.85;;;3.97;;
25437;SDS011;13364;49.084;9.978;2023-01-19T06:35:24;17.13;;;9.73;;
25437;SDS011;13364;49.084;9.978;2023-01-19T06:37:51;17.60;;;9.43;;
25437;SDS011;13364;49.084;9.978;2023-01-19T06:40:19;22.08;;;10.45;;
25437;SDS011;13364;49.084;9.978;2023-01-19T06:42:47;18.50;;;10.05;;
25437;SDS011;13364;49.084;9.978;2023-01-19T06:45:14;22.00;;;11.52;;
25437;SDS011;13364;49.084;9.978;2023-01-19T06:47:41;17.70;;;11.40;;
25437;SDS011;13364;49.084;9.978;2023-01-19T06:50:08;24.48;;;12.75;;
25437;SDS011;13364;49.084;9.978;2023-01-19T06:52:36;27.05;;;13.27;;
25437;SDS011;13364;49.084;9.978;2023-01-19T06:55:09;20.90;;;12.15;;
25437;SDS011;13364;49.084;9.978;2023-01-19T07:00:06;23.05;;;12.10;;
25437;SDS011;13364;49.084;9.978;2023-01-19T07:02:34;17.58;;;11.52;;
25437;SDS011;13364;49.084;9.978;2023-01-19T07:07:59;25.98;;;13.10;;
25437;SDS011;13364;49.084;9.978;2023-01-19T07:10:26;21.50;;;11.95;;
25437;SDS011;13364;49.084;9.978;2023-01-19T07:13:13;20.27;;;11.57;;
25437;SDS011;13364;49.084;9.978;2023-01-19T07:15:40;23.67;;;12.45;;
25437;SDS011;13364;49.084;9.978;2023-01-19T07:18:07;16.83;;;8.90;;
25437;SDS011;13364;49.084;9.978;2023-01-19T07:20:35;18.38;;;10.35;;
25437;SDS011;13364;49.084;9.978;2023-01-19T07:23:03;19.35;;;10.57;;
25437;SDS011;13364;49.084;9.978;2023-01-19T07:25:30;16.48;;;10.48;;
25437;SDS011;13364;49.084;9.978;2023-01-19T07:27:58;10.90;;;6.22;;
25437;SDS011;13364;49.084;9.978;2023-01-19T07:30:25;20.15;;;11.10;;
25437;SDS011;13364;49.084;9.978;2023-01-19T07:32:56;14.30;;;9.02;;
25437;SDS011;13364;49.084;9.978;2023-01-19T07:35:24;11.13;;;7.57;;
25437;SDS011;13364;49.084;9.978;2023-01-19T07:37:51;17.90;;;10.40;;
25437;SDS011;13364;49.084;9.978;2023-01-19T07:40:18;14.75;;;6.65;;
25437;SDS011;13364;49.084;9.978;2023-01-19T07:42:46;13.52;;;7.40;;
25437;SDS011;13364;49.084;9.978;2023-01-19T07:45:18;12.73;;;8.30;;
25437;SDS011;13364;49.084;9.978;2023-01-19T07:47:46;20.63;;;11.30;;
25437;SDS011;13364;49.084;9.978;2023-01-19T07:50:15;17.63;;;10.15;;
25437;SDS011;13364;49.084;9.978;2023-01-19T07:52:43;20.02;;;10.82;;
25437;SDS011;13364;49.084;9.978;2023-01-19T07:55:10;22.27;;;9.77;;
25437;SDS011;13364;49.084;9.978;2023-01-19T07:57:37;20.73;;;11.10;;
25437;SDS011;13364;49.084;9.978;2023-01-19T08:00:04;20.10;;;11.25;;
25437;SDS011;13364;49.084;9.978;2023-01-19T08:02:40;19.23;;;10.65;;
25437;SDS011;13364;49.084;9.978;2023-01-19T08:05:07;16.45;;;9.10;;
25437;SDS011;13364;49.084;9.978;2023-01-19T08:07:34;10.68;;;6.65;;
25437;SDS011;13364;49.084;9.978;2023-01-19T08:10:01;18.52;;;10.18;;
25437;SDS011;13364;49.084;9.978;2023-01-19T08:12:28;9.23;;;4.50;;
25437;SDS011;13364;49.084;9.978;2023-01-19T08:14:55;17.02;;;9.82;;
25437;SDS011;13364;49.084;9.978;2023-01-19T08:17:22;19.80;;;10.07;;
25437;SDS011;13364;49.084;9.978;2023-01-19T08:19:49;24.88;;;10.95;;
25437;SDS011;13364;49.084;9.978;2023-01-19T08:22:16;23.45;;;12.18;;
25437;SDS011;13364;49.084;9.978;2023-01-19T08:24:43;19.02;;;9.70;;
25437;SDS011;13364;49.084;9.978;2023-01-19T08:27:10;22.98;;;13.43;;
25437;SDS011;13364;49.084;9.978;2023-01-19T08:29:40;24.42;;;11.65;;
25437;SDS011;13364;49.084;9.978;2023-01-19T08:32:07;15.00;;;7.93;;
25437;SDS011;13364;49.084;9.978;2023-01-19T08:34:34;20.75;;;10.90;;
25437;SDS011;13364;49.084;9.978;2023-01-19T08:37:01;11.60;;;7.95;;
25437;SDS011;13364;49.084;9.978;2023-01-19T08:39:28;17.27;;;9.32;;
25437;SDS011;13364;49.084;9.978;2023-01-19T08:41:55;16.55;;;9.45;;
25437;SDS011;13364;49.084;9.978;2023-01-19T08:44:23;19.20;;;10.80;;
25437;SDS011;13364;49.084;9.978;2023-01-19T08:46:50;15.98;;;10.25;;
25437;SDS011;13364;49.084;9.978;2023-01-19T08:49:17;18.75;;;7.47;;
25437;SDS011;13364;49.084;9.978;2023-01-19T08:51:44;16.05;;;5.57;;
25437;SDS011;13364;49.084;9.978;2023-01-19T08:54:12;17.05;;;10.35;;
25437;SDS011;13364;49.084;9.978;2023-01-19T08:56:39;16.88;;;9.32;;
25437;SDS011;13364;49.084;9.978;2023-01-19T08:59:06;22.65;;;10.30;;
25437;SDS011;13364;49.084;9.978;2023-01-19T09:01:37;14.27;;;9.15;;
25437;SDS011;13364;49.084;9.978;2023-01-19T09:04:04;16.83;;;9.18;;
25437;SDS011;13364;49.084;9.978;2023-01-19T09:06:31;20.33;;;10.02;;
25437;SDS011;13364;49.084;9.978;2023-01-19T09:09:02;21.13;;;9.77;;
25437;SDS011;13364;49.084;9.978;2023-01-19T09:11:30;16.92;;;9.80;;
25437;SDS011;13364;49.084;9.978;2023-01-19T09:13:57;11.20;;;8.00;;
25437;SDS011;13364;49.084;9.978;2023-01-19T09:16:24;13.80;;;3.80;;
25437;SDS011;13364;49.084;9.978;2023-01-19T09:18:52;14.55;;;8.85;;
25437;SDS011;13364;49.084;9.978;2023-01-19T09:21:19;11.60;;;6.45;;
25437;SDS011;13364;49.084;9.978;2023-01-19T09:23:46;13.55;;;8.48;;
25437;SDS011;13364;49.084;9.978;2023-01-19T09:26:14;15.52;;;7.80;;
25437;SDS011;13364;49.084;9.978;2023-01-19T09:28:41;16.15;;;10.93;;
25437;SDS011;13364;49.084;9.978;2023-01-19T09:34:28;7.78;;;4.72;;
25437;SDS011;13364;49.084;9.978;2023-01-19T09:36:56;18.15;;;10.55;;
25437;SDS011;13364;49.084;9.978;2023-01-19T09:39:23;16.48;;;8.90;;
25437;SDS011;13364;49.084;9.978;2023-01-19T09:41:55;23.88;;;12.60;;
25437;SDS011;13364;49.084;9.978;2023-01-19T09:44:33;17.58;;;9.93;;
25437;SDS011;13364;49.084;9.978;2023-01-19T09:47:01;7.60;;;4.45;;
25437;SDS011;13364;49.084;9.978;2023-01-19T09:49:39;5.97;;;4.00;;
25437;SDS011;13364;49.084;9.978;2023-01-19T09:52:13;13.90;;;7.90;;
25437;SDS011;13364;49.084;9.978;2023-01-19T09:54:52;13.15;;;6.57;;
25437;SDS011;13364;49.084;9.978;2023-01-19T09:57:24;14.88;;;8.95;;
25437;SDS011;13364;49.084;9.978;2023-01-19T09:59:52;6.18;;;4.85;;
25437;SDS011;13364;49.084;9.978;2023-01-19T10:14:20;13.43;;;7.00;;
25437;SDS011;13364;49.084;9.978;2023-01-19T10:17:01;15.45;;;8.00;;
25437;SDS011;13364;49.084;9.978;2023-01-19T10:19:37;11.40;;;6.55;;
25437;SDS011;13364;49.084;9.978;2023-01-19T10:22:18;15.52;;;6.00;;
25437;SDS011;13364;49.084;9.978;2023-01-19T10:24:50;7.95;;;5.35;;
25437;SDS011;13364;49.084;9.978;2023-01-19T10:27:22;13.52;;;7.50;;
25437;SDS011;13364;49.084;9.978;2023-01-19T10:30:00;9.52;;;4.95;;
25437;SDS011;13364;49.084;9.978;2023-01-19T10:32:28;9.43;;;6.40;;
25437;SDS011;13364;49.084;9.978;2023-01-19T10:34:59;10.95;;;6.75;;
25437;SDS011;13364;49.084;9.978;2023-01-19T10:37:35;5.97;;;3.80;;
25437;SDS011;13364;49.084;9.978;2023-01-19T10:42:38;7.10;;;4.85;;
25437;SDS011;13364;49.084;9.978;2023-01-19T10:47:44;5.40;;;3.95;;
25437;SDS011;13364;49.084;9.978;2023-01-19T10:50:26;16.30;;;5.85;;
25437;SDS011;13364;49.084;9.978;2023-01-19T10:52:56;4.05;;;3.25;;
25437;SDS011;13364;49.084;9.978;2023-01-19T10:55:29;11.43;;;6.82;;
25437;SDS011;13364;49.084;9.978;2023-01-19T10:58:03;12.55;;;7.38;;
25437;SDS011;13364;49.084;9.978;2023-01-19T11:00:33;11.23;;;6.37;;
25437;SDS011;13364;49.084;9.978;2023-01-19T11:03:20;13.35;;;6.93;;
25437;SDS011;13364;49.084;9.978;2023-01-19T11:05:48;16.02;;;7.30;;
25437;SDS011;13364;49.084;9.978;2023-01-19T11:08:23;14.70;;;7.78;;
25437;SDS011;13364;49.084;9.978;2023-01-19T11:10:57;6.65;;;4.97;;
25437;SDS011;13364;49.084;9.978;2023-01-19T11:13:27;6.28;;;4.40;;
25437;SDS011;13364;49.084;9.978;2023-01-19T11:15:58;10.55;;;6.57;;
25437;SDS011;13364;49.084;9.978;2023-01-19T11:18:31;9.68;;;5.95;;
25437;SDS011;13364;49.084;9.978;2023-01-19T11:21:05;8.32;;;4.25;;
25437;SDS011;13364;49.084;9.978;2023-01-19T11:23:35;2.63;;;2.17;;
25437;SDS011;13364;49.084;9.978;2023-01-19T11:26:11;9.07;;;4.40;;
25437;SDS011;13364;49.084;9.978;2023-01-19T11:28:42;6.75;;;2.28;;
25437;SDS011;13364;49.084;9.978;2023-01-19T11:33:48;6.68;;;4.57;;
25437;SDS011;13364;49.084;9.978;2023-01-19T11:36:24;4.53;;;2.97;;
25437;SDS011;13364;49.084;9.978;2023-01-19T11:38:56;6.57;;;4.47;;
25437;SDS011;13364;49.084;9.978;2023-01-19T11:41:27;8.02;;;4.30;;
25437;SDS011;13364;49.084;9.978;2023-01-19T11:44:01;2.83;;;2.50;;
25437;SDS011;13364;49.084;9.978;2023-01-19T11:46:42;6.43;;;4.95;;
25437;SDS011;13364;49.084;9.978;2023-01-19T11:51:48;7.95;;;4.70;;
25437;SDS011;13364;49.084;9.978;2023-01-19T11:54:22;6.25;;;4.22;;
25437;SDS011;13364;49.084;9.978;2023-01-19T11:56:55;8.27;;;4.55;;
25437;SDS011;13364;49.084;9.978;2023-01-19T11:59:25;6.85;;;4.47;;
25437;SDS011;13364;49.084;9.978;2023-01-19T12:01:56;7.65;;;4.45;;
25437;SDS011;13364;49.084;9.978;2023-01-19T12:06:53;10.05;;;3.00;;
25437;SDS011;13364;49.084;9.978;2023-01-19T12:12:06;9.23;;;5.78;;
25437;SDS011;13364;49.084;9.978;2023-01-19T12:14:50;7.90;;;5.22;;
25437;SDS011;13364;49.084;9.978;2023-01-19T12:17:22;9.88;;;5.20;;
25437;SDS011;13364;49.084;9.978;2023-01-19T12:19:55;7.05;;;5.00;;
25437;SDS011;13364;49.084;9.978;2023-01-19T12:22:29;8.88;;;5.07;;
25437;SDS011;13364;49.084;9.978;2023-01-19T12:25:13;6.60;;;4.80;;
25437;SDS011;13364;49.084;9.978;2023-01-19T12:27:53;6.65;;;4.40;;
25437;SDS011;13364;49.084;9.978;2023-01-19T12:30:22;6.28;;;4.57;;
25437;SDS011;13364;49.084;9.978;2023-01-19T12:33:18;7.05;;;4.10;;
25437;SDS011;13364;49.084;9.978;2023-01-19T12:38:34;6.30;;;4.25;;
25437;SDS011;13364;49.084;9.978;2023-01-19T12:44:14;9.02;;;5.35;;
25437;SDS011;13364;49.084;9.978;2023-01-19T12:46:47;11.90;;;5.75;;
25437;SDS011;13364;49.084;9.978;2023-01-19T13:01:41;6.97;;;5.43;;
25437;SDS011;13364;49.084;9.978;2023-01-19T13:04:30;13.93;;;5.68;;
25437;SDS011;13364;49.084;9.978;2023-01-19T13:07:05;8.85;;;5.43;;
25437;SDS011;13364;49.084;9.978;2023-01-19T13:09:36;10.60;;;5.53;;
25437;SDS011;13364;49.084;9.978;2023-01-19T13:14:40;6.25;;;3.78;;
25437;SDS011;13364;49.084;9.978;2023-01-19T13:17:28;8.70;;;5.57;;
25437;SDS011;13364;49.084;9.978;2023-01-19T13:20:17;10.88;;;6.00;;
25437;SDS011;13364;49.084;9.978;2023-01-19T13:22:48;8.00;;;5.60;;
25437;SDS011;13364;49.084;9.978;2023-01-19T13:28:01;10.63;;;5.68;;
25437;SDS011;13364;49.084;9.978;2023-01-19T13:30:32;8.15;;;5.40;;
25437;SDS011;13364;49.084;9.978;2023-01-19T13:33:08;9.63;;;5.13;;
25437;SDS011;13364;49.084;9.978;2023-01-19T13:35:51;8.68;;;5.50;;
25437;SDS011;13364;49.084;9.978;2023-01-19T13:38:21;6.30;;;4.50;;
25437;SDS011;13364;49.084;9.978;2023-01-19T13:40:49;10.45;;;5.60;;
25437;SDS011;13364;49.084;9.978;2023-01-19T13:43:23;8.18;;;5.47;;
25437;SDS011;13364;49.084;9.978;2023-01-19T13:45:54;10.45;;;5.60;;
25437;SDS011;13364;49.084;9.978;2023-01-19T13:48:24;2.63;;;1.95;;
25437;SDS011;13364;49.084;9.978;2023-01-19T13:50:56;6.57;;;5.18;;
25437;SDS011;13364;49.084;9.978;2023-01-19T13:53:25;10.90;;;5.55;;
25437;SDS011;13364;49.084;9.978;2023-01-19T13:56:05;9.93;;;5.32;;
25437;SDS011;13364;49.084;9.978;2023-01-19T13:59:06;8.57;;;4.90;;
25437;SDS011;13364;49.084;9.978;2023-01-19T14:01:37;9.50;;;6.10;;
25437;SDS011;13364;49.084;9.978;2023-01-19T14:06:53;9.80;;;5.68;;
25437;SDS011;13364;49.084;9.978;2023-01-19T14:09:59;8.68;;;6.00;;
25437;SDS011;13364;49.084;9.978;2023-01-19T14:12:28;8.75;;;5.85;;
25437;SDS011;13364;49.084;9.978;2023-01-19T14:14:55;8.65;;;5.30;;
25437;SDS011;13364;49.084;9.978;2023-01-19T14:17:26;12.38;;;6.55;;
25437;SDS011;13364;49.084;9.978;2023-01-19T14:19:55;10.65;;;6.47;;
25437;SDS011;13364;49.084;9.978;2023-01-19T14:25:26;5.57;;;3.63;;
25437;SDS011;13364;49.084;9.978;2023-01-19T14:30:58;11.02;;;6.00;;
25437;SDS011;13364;49.084;9.978;2023-01-19T14:33:31;6.15;;;4.20;;
25437;SDS011;13364;49.084;9.978;2023-01-19T14:36:56;5.38;;;3.60;;
25437;SDS011;13364;49.084;9.978;2023-01-19T14:39:12;9.02;;;5.88;;
25437;SDS011;13364;49.084;9.978;2023-01-19T14:44:35;14.13;;;6.07;;
25437;SDS011;13364;49.084;9.978;2023-01-19T14:47:04;10.20;;;5.88;;
25437;SDS011;13364;49.084;9.978;2023-01-19T14:52:04;15.68;;;8.50;;
25437;SDS011;13364;49.084;9.978;2023-01-19T14:54:41;17.80;;;9.93;;
25437;SDS011;13364;49.084;9.978;2023-01-19T14:57:11;15.48;;;9.25;;
25437;SDS011;13364;49.084;9.978;2023-01-19T14:59:39;13.82;;;6.90;;
25437;SDS011;13364;49.084;9.978;2023-01-19T15:02:07;8.73;;;5.10;;
25437;SDS011;13364;49.084;9.978;2023-01-19T15:04:34;11.00;;;7.10;;
25437;SDS011;13364;49.084;9.978;2023-01-19T15:07:01;9.07;;;6.22;;
25437;SDS011;13364;49.084;9.978;2023-01-19T15:09:28;8.73;;;6.50;;
25437;SDS011;13364;49.084;9.978;2023-01-19T15:11:56;9.77;;;5.88;;
25437;SDS011;13364;49.084;9.978;2023-01-19T15:14:23;8.43;;;5.78;;
25437;SDS011;13364;49.084;9.978;2023-01-19T15:16:51;11.32;;;6.75;;
25437;SDS011;13364;49.084;9.978;2023-01-19T15:19:18;14.00;;;7.35;;
25437;SDS011;13364;49.084;9.978;2023-01-19T15:24:21;10.20;;;5.72;;
25437;SDS011;13364;49.084;9.978;2023-01-19T15:26:49;9.40;;;6.57;;
25437;SDS011;13364;49.084;9.978;2023-01-19T15:29:21;9.73;;;5.85;;
25437;SDS011;13364;49.084;9.978;2023-01-19T15:31:49;8.68;;;5.45;;
25437;SDS011;13364;49.084;9.978;2023-01-19T15:34:17;12.27;;;6.10;;
25437;SDS011;13364;49.084;9.978;2023-01-19T15:36:44;7.45;;;5.03;;
25437;SDS011;13364;49.084;9.978;2023-01-19T15:39:11;8.95;;;5.35;;
25437;SDS011;13364;49.084;9.978;2023-01-19T15:41:38;9.02;;;5.63;;
25437;SDS011;13364;49.084;9.978;2023-01-19T15:44:05;8.57;;;5.35;;
25437;SDS011;13364;49.084;9.978;2023-01-19T15:46:36;7.97;;;5.82;;
25437;SDS011;13364;49.084;9.978;2023-01-19T15:49:03;7.70;;;4.97;;
25437;SDS011;13364;49.084;9.978;2023-01-19T15:51:31;8.77;;;5.55;;
25437;SDS011;13364;49.084;9.978;2023-01-19T15:53:58;8.73;;;5.03;;
25437;SDS011;13364;49.084;9.978;2023-01-19T15:56:26;10.65;;;5.55;;
25437;SDS011;13364;49.084;9.978;2023-01-19T15:58:55;8.35;;;5.75;;
25437;SDS011;13364;49.084;9.978;2023-01-19T16:01:24;9.32;;;5.55;;
25437;SDS011;13364;49.084;9.978;2023-01-19T16:03:58;9.55;;;5.55;;
25437;SDS011;13364;49.084;9.978;2023-01-19T16:06:27;10.50;;;5.78;;
25437;SDS011;13364;49.084;9.978;2023-01-19T16:08:54;10.48;;;6.18;;
25437;SDS011;13364;49.084;9.978;2023-01-19T16:11:27;10.82;;;6.72;;
25437;SDS011;13364;49.084;9.978;2023-01-19T16:13:55;7.35;;;5.45;;
25437;SDS011;13364;49.084;9.978;2023-01-19T16:16:23;10.13;;;6.32;;
25437;SDS011;13364;49.084;9.978;2023-01-19T16:18:51;9.63;;;6.13;;
25437;SDS011;13364;49.084;9.978;2023-01-19T16:21:18;12.18;;;6.18;;
25437;SDS011;13364;49.084;9.978;2023-01-19T16:23:45;9.60;;;5.88;;
25437;SDS011;13364;49.084;9.978;2023-01-19T16:26:22;9.38;;;5.85;;
25437;SDS011;13364;49.084;9.978;2023-01-19T16:31:42;12.85;;;7.03;;
25437;SDS011;13364;49.084;9.978;2023-01-19T16:34:10;8.98;;;4.65;;
25437;SDS011;13364;49.084;9.978;2023-01-19T16:36:38;10.20;;;6.53;;
25437;SDS011;13364;49.084;9.978;2023-01-19T16:39:09;10.82;;;6.57;;
25437;SDS011;13364;49.084;9.978;2023-01-19T16:41:37;10.50;;;7.05;;
25437;SDS011;13364;49.084;9.978;2023-01-19T16:44:05;14.65;;;8.48;;